Marietta, GA (30006)

7:10 AM EST on December 05, 2016 (GMT -0500)
MesoWest | | Change Station

Elev 1062 ft 33.97 °N, 84.53 °W | Updated 30 minutes ago

Overcast
Overcast
44 °F
Feels Like 44 °F
N
2
Wind Variable Wind from ESE
Gusts 9.0 mph

Today
High -- | Low -- °F
--% Chance of Precip.
Yesterday
High -- | Low -- °F
Precip. -- in
Pressure 30.00 in
Visibility 3.0 miles
Clouds Overcast 200 ft
Windchill 44 °F
Dew Point 44 °F
Humidity 98%
Rainfall in
Snow Depth Not available.
7:29 AM 5:28 PM
Waxing Crescent, 31% visible
METAR KMGE 051158Z 00000KT 3SM BR OVC002 07/06 A2998 RMK AO2A SLP157 60001 70070 T00690061 10069 20060 58003 $
Pressure 30.00 in
Visibility 3.0 miles
Clouds Overcast 200 ft
Windchill 44 °F
Dew Point 44 °F
Humidity 98%
Rainfall in
Snow Depth Not available.
7:29 AM 5:28 PM
Waxing Crescent, 31% visible
METAR KMGE 051158Z 00000KT 3SM BR OVC002 07/06 A2998 RMK AO2A SLP157 60001 70070 T00690061 10069 20060 58003 $

10-Day Weather Forecast

Almanac

Astronomy

Dec. 05, 2016 Rise Set
Actual Time
Civil Twilight
Nautical Twilight
Astronomical Twilight
Moon
Length of Visible Light
Length of Day
Tomorrow will be .
, % of the Moon is Illuminated

Today's Extremes

State Highs State Lows

Community

WunderPhotos

Upload Photos

1,955,779 photos uploaded!

WunderBlog® & News

Nearby

Air Quality

  Air Quality AQ Index Pollutant
Not available.

Snow Depth

Station Depth Elevation

Earthquake Activity

City Distance Mag. Time & Date
Minimum magnitude displayed is 2.5.

Coastal Water Temperatures

Place Temperature

Stations

Nearby Weather Stations

Station Location Temp. Windchill Dew Point Humidity Wind Precip. Elev Updated Type
                   

Watches & Warnings

There are currently no watches in effect.